Time;durP1;ratioP1;P1;durP2;ratioP2;P2;SDS_P1;SDS_P2;PMS_P1;PMS_P2;Temp;Humidity;BMP_temperature;BMP_pressure;BME280_temperature;BME280_humidity;BME280_pressure;Samples;Min_cycle;Max_cycle;Signal;HPM_P1;HPM_P2
2023/11/05 00:01:47;;;;;;;48.05;42.10;;;12.30;99.90;;;;;;5030476;28;20033;-71
2023/11/05 00:04:13;;;;;;;43.75;29.15;;;12.30;99.90;;;;;;5032342;28;20029;-72
2023/11/05 00:06:39;;;;;;;39.15;28.02;;;12.30;99.90;;;;;;5032271;28;20041;-71
2023/11/05 00:09:06;;;;;;;39.15;27.35;;;12.30;99.90;;;;;;5032625;28;20467;-71
2023/11/05 00:11:32;;;;;;;40.08;32.53;;;12.30;99.90;;;;;;5031137;28;20038;-71
2023/11/05 00:13:58;;;;;;;41.88;33.42;;;12.30;99.90;;;;;;5031249;28;20378;-71
2023/11/05 00:16:24;;;;;;;37.33;32.90;;;12.30;99.90;;;;;;5031556;28;20065;-71
2023/11/05 00:18:51;;;;;;;39.63;33.55;;;12.30;99.90;;;;;;5031124;28;20192;-72
2023/11/05 00:21:17;;;;;;;33.55;30.27;;;12.30;99.90;;;;;;5032228;28;20040;-71
2023/11/05 00:23:44;;;;;;;38.03;33.88;;;12.20;99.90;;;;;;5032587;28;20029;-71
2023/11/05 00:26:10;;;;;;;39.08;34.95;;;12.20;99.90;;;;;;5030934;28;20033;-71
2023/11/05 00:28:36;;;;;;;31.40;28.67;;;12.20;99.90;;;;;;5031829;28;20044;-72
2023/11/05 00:31:03;;;;;;;34.42;30.45;;;12.20;99.90;;;;;;5031573;28;20482;-71
2023/11/05 00:33:29;;;;;;;45.45;41.33;;;12.20;99.90;;;;;;5031565;28;20033;-72
2023/11/05 00:35:55;;;;;;;36.20;32.88;;;12.20;99.90;;;;;;5031641;28;20045;-71
2023/11/05 00:38:21;;;;;;;51.78;46.70;;;12.20;99.90;;;;;;5032022;28;20042;-71
2023/11/05 00:40:47;;;;;;;52.80;39.30;;;12.20;99.90;;;;;;5031551;28;20044;-72
2023/11/05 00:43:13;;;;;;;45.10;40.92;;;12.20;99.90;;;;;;5031903;28;20056;-72
2023/11/05 00:45:39;;;;;;;47.58;40.53;;;12.20;99.90;;;;;;5031388;28;20029;-72
2023/11/05 00:48:05;;;;;;;35.15;31.42;;;12.10;99.90;;;;;;5031934;28;20390;-72
2023/11/05 00:50:31;;;;;;;37.63;33.10;;;12.20;99.90;;;;;;5031750;28;20037;-71
2023/11/05 00:52:58;;;;;;;40.08;32.63;;;12.10;99.90;;;;;;5032164;28;20038;-71
2023/11/05 00:55:24;;;;;;;42.25;37.85;;;12.20;99.90;;;;;;5030131;28;20034;-72
2023/11/05 00:57:51;;;;;;;45.03;37.42;;;12.20;99.90;;;;;;5030769;28;20033;-71
2023/11/05 01:00:17;;;;;;;38.80;34.53;;;12.20;99.90;;;;;;5031036;28;20026;-71
2023/11/05 01:02:43;;;;;;;35.45;31.77;;;12.20;99.90;;;;;;5031325;28;20034;-71
2023/11/05 01:05:10;;;;;;;38.28;34.28;;;12.20;99.90;;;;;;5030324;28;20025;-71
2023/11/05 01:07:36;;;;;;;35.30;31.85;;;12.20;99.90;;;;;;5030325;28;20025;-72
2023/11/05 01:10:02;;;;;;;36.00;31.80;;;12.20;99.90;;;;;;5031923;28;20045;-71
2023/11/05 01:12:28;;;;;;;33.42;30.23;;;12.10;99.90;;;;;;5010254;28;20034;-71
2023/11/05 01:14:55;;;;;;;32.08;27.42;;;12.10;99.90;;;;;;5011012;28;20395;-71
2023/11/05 01:17:21;;;;;;;30.50;27.48;;;12.10;99.90;;;;;;5031078;28;20514;-72
2023/11/05 01:19:48;;;;;;;38.63;32.25;;;12.10;99.90;;;;;;5030464;28;20025;-72
2023/11/05 01:22:14;;;;;;;32.88;29.63;;;12.10;99.90;;;;;;5030102;28;20394;-72
2023/11/05 01:24:40;;;;;;;37.03;33.30;;;12.10;99.90;;;;;;5031799;28;20033;-72
2023/11/05 01:27:06;;;;;;;34.58;31.08;;;12.10;99.90;;;;;;5029796;28;20048;-71
2023/11/05 01:29:34;;;;;;;32.80;29.55;;;12.10;99.90;;;;;;5030474;28;20463;-72
2023/11/05 01:32:00;;;;;;;34.05;30.55;;;12.10;99.90;;;;;;5030983;28;20486;-71
2023/11/05 01:34:26;;;;;;;33.92;29.92;;;12.00;99.90;;;;;;5031684;28;20036;-72
2023/11/05 01:36:52;;;;;;;26.67;23.27;;;12.10;99.90;;;;;;5031348;28;20509;-71
2023/11/05 01:39:19;;;;;;;32.70;29.38;;;12.10;99.90;;;;;;5013975;28;20041;-71
2023/11/05 01:41:45;;;;;;;31.17;28.35;;;12.00;99.90;;;;;;5030403;28;20040;-71
2023/11/05 01:44:12;;;;;;;33.10;29.98;;;12.00;99.90;;;;;;5031329;28;20041;-72
2023/11/05 01:46:38;;;;;;;36.40;29.92;;;12.00;99.90;;;;;;5032518;28;20042;-71
2023/11/05 01:49:04;;;;;;;33.75;30.58;;;12.00;99.90;;;;;;5034321;28;20386;-72
2023/11/05 01:51:30;;;;;;;40.33;35.72;;;12.00;99.90;;;;;;5033190;28;20045;-72
2023/11/05 01:53:57;;;;;;;47.25;43.38;;;12.10;99.90;;;;;;5034698;28;20037;-72
2023/11/05 01:56:24;;;;;;;50.97;46.70;;;12.00;99.90;;;;;;5034248;28;20042;-71
2023/11/05 01:58:51;;;;;;;59.55;54.83;;;12.00;99.90;;;;;;5034049;28;20021;-72
2023/11/05 02:01:17;;;;;;;39.58;36.53;;;12.00;99.90;;;;;;5033106;28;20038;-71
2023/11/05 02:03:43;;;;;;;44.92;41.38;;;12.00;99.90;;;;;;5033810;28;20029;-72
2023/11/05 02:06:13;;;;;;;42.15;38.25;;;12.00;99.90;;;;;;5016009;28;20050;-72
2023/11/05 02:08:40;;;;;;;49.15;45.53;;;12.00;99.90;;;;;;5034816;28;20029;-72
2023/11/05 02:11:06;;;;;;;53.30;48.78;;;12.00;99.90;;;;;;5032787;28;20037;-71
2023/11/05 02:13:52;;;;;;;42.60;39.75;;;12.00;99.90;;;;;;5034902;28;20029;-72
2023/11/05 02:16:19;;;;;;;38.33;35.22;;;12.00;99.90;;;;;;5033772;28;20486;-71
2023/11/05 02:18:46;;;;;;;50.83;46.78;;;12.00;99.90;;;;;;5033166;28;20375;-72
2023/11/05 02:21:14;;;;;;;41.80;38.20;;;12.00;99.90;;;;;;5032484;28;20388;-71
2023/11/05 02:23:40;;;;;;;45.30;40.95;;;12.00;99.90;;;;;;5032929;28;20036;-72
2023/11/05 02:26:07;;;;;;;47.28;43.90;;;12.00;99.90;;;;;;5032746;28;20033;-72
2023/11/05 02:28:33;;;;;;;53.55;49.38;;;12.00;99.90;;;;;;5032689;28;20044;-71
2023/11/05 02:30:59;;;;;;;38.00;34.58;;;12.00;99.90;;;;;;5033615;28;20034;-71
2023/11/05 02:33:25;;;;;;;41.33;38.47;;;12.00;99.90;;;;;;5033831;28;20501;-71
2023/11/05 02:35:51;;;;;;;38.08;34.95;;;12.00;99.90;;;;;;5034128;28;20029;-71
2023/11/05 02:38:17;;;;;;;41.85;38.55;;;12.00;99.90;;;;;;5033864;28;20470;-71
2023/11/05 02:40:43;;;;;;;42.00;38.70;;;11.90;99.90;;;;;;5032914;28;20045;-71
2023/11/05 02:43:09;;;;;;;37.75;34.40;;;12.00;99.90;;;;;;5034434;28;20026;-71
2023/11/05 02:45:36;;;;;;;33.97;31.27;;;12.00;99.90;;;;;;5033464;28;20482;-71
2023/11/05 02:48:03;;;;;;;39.97;36.92;;;12.00;99.90;;;;;;5033743;28;20022;-71
2023/11/05 02:50:29;;;;;;;33.72;31.00;;;11.90;99.90;;;;;;5033981;28;20049;-71
2023/11/05 02:52:55;;;;;;;41.55;38.45;;;11.90;99.90;;;;;;5032005;28;20034;-71
2023/11/05 02:55:21;;;;;;;39.10;36.08;;;12.00;99.90;;;;;;5033145;28;20048;-71
2023/11/05 02:57:47;;;;;;;37.72;34.92;;;12.00;99.90;;;;;;5033111;28;20034;-71
2023/11/05 03:00:15;;;;;;;36.67;33.63;;;12.00;99.90;;;;;;5033338;28;20037;-72
2023/11/05 03:02:41;;;;;;;31.55;28.73;;;12.00;99.90;;;;;;5033805;28;20029;-71
2023/11/05 03:05:07;;;;;;;36.17;32.90;;;12.00;99.90;;;;;;5032257;28;20039;-72
2023/11/05 03:07:34;;;;;;;48.80;45.30;;;12.00;99.90;;;;;;5032231;28;20060;-72
2023/11/05 03:10:00;;;;;;;38.30;35.03;;;12.00;99.90;;;;;;5032327;28;20028;-72
2023/11/05 03:12:26;;;;;;;48.45;44.95;;;11.90;99.90;;;;;;5033487;28;20041;-72
2023/11/05 03:14:52;;;;;;;53.90;50.25;;;12.00;99.90;;;;;;5033347;28;20037;-71
2023/11/05 03:17:18;;;;;;;32.30;29.75;;;12.00;99.90;;;;;;5031958;28;20097;-71
2023/11/05 03:19:44;;;;;;;29.80;27.23;;;11.90;99.90;;;;;;5033676;28;20025;-71
2023/11/05 03:22:10;;;;;;;36.33;33.70;;;11.90;99.90;;;;;;5033108;28;20416;-72
2023/11/05 03:24:36;;;;;;;41.05;37.85;;;11.90;99.90;;;;;;5032741;28;20021;-72
2023/11/05 03:27:02;;;;;;;45.38;41.63;;;11.90;99.90;;;;;;5032025;28;20438;-71
2023/11/05 03:29:29;;;;;;;30.80;27.98;;;11.90;99.90;;;;;;5033353;28;20030;-72
2023/11/05 03:31:56;;;;;;;33.00;30.50;;;11.90;99.90;;;;;;5032580;28;20033;-71
2023/11/05 03:34:22;;;;;;;40.65;37.20;;;11.90;99.90;;;;;;5033424;28;20041;-71
2023/11/05 03:36:48;;;;;;;40.72;37.10;;;11.90;99.90;;;;;;5031830;28;20044;-72
2023/11/05 03:39:15;;;;;;;38.92;35.65;;;11.90;99.90;;;;;;5033290;28;20044;-71
2023/11/05 03:41:41;;;;;;;40.63;37.50;;;11.90;99.90;;;;;;5032546;28;20626;-72
2023/11/05 03:44:07;;;;;;;41.92;38.60;;;11.90;99.90;;;;;;5031950;28;20026;-71
2023/11/05 03:46:33;;;;;;;29.60;27.38;;;11.90;99.90;;;;;;5032311;28;20060;-71
2023/11/05 03:48:59;;;;;;;30.48;27.52;;;11.90;99.90;;;;;;5033082;28;20029;-71
2023/11/05 03:51:25;;;;;;;33.28;30.40;;;11.90;99.90;;;;;;5032487;28;20029;-71
2023/11/05 03:53:51;;;;;;;33.60;31.05;;;11.90;99.90;;;;;;5032904;28;20030;-71
2023/11/05 03:56:17;;;;;;;32.78;30.00;;;11.80;99.90;;;;;;5032558;28;20449;-71
2023/11/05 03:58:44;;;;;;;32.25;29.35;;;11.80;99.90;;;;;;5032901;28;20030;-71
2023/11/05 04:01:15;;;;;;;36.33;33.10;;;11.80;99.90;;;;;;5032010;28;20030;-72
2023/11/05 04:03:41;;;;;;;53.40;49.03;;;11.80;99.90;;;;;;5031508;28;20037;-72
2023/11/05 04:06:07;;;;;;;35.50;32.53;;;11.80;99.90;;;;;;5032022;28;20034;-72
2023/11/05 04:08:33;;;;;;;35.83;32.78;;;11.90;99.90;;;;;;5032303;28;20038;-71
2023/11/05 04:11:00;;;;;;;45.13;40.95;;;11.90;99.90;;;;;;5031499;28;20044;-72
2023/11/05 04:13:26;;;;;;;38.33;34.97;;;11.90;99.90;;;;;;5032207;28;20033;-72
2023/11/05 04:15:52;;;;;;;37.20;33.65;;;11.90;99.90;;;;;;5031701;28;20053;-71
2023/11/05 04:18:18;;;;;;;34.10;30.67;;;11.90;99.90;;;;;;5032556;28;20060;-71
2023/11/05 04:20:44;;;;;;;39.00;35.83;;;11.90;99.90;;;;;;5030594;28;20022;-71
2023/11/05 04:23:11;;;;;;;32.40;29.25;;;11.90;99.90;;;;;;5031404;28;20026;-71
2023/11/05 04:25:37;;;;;;;35.17;31.60;;;11.90;99.90;;;;;;5031042;28;20022;-72
2023/11/05 04:28:04;;;;;;;34.58;31.70;;;11.90;99.90;;;;;;5031314;28;20045;-72
2023/11/05 04:30:30;;;;;;;30.75;28.08;;;11.90;99.90;;;;;;5031712;28;20041;-71
2023/11/05 04:32:56;;;;;;;36.10;32.83;;;11.90;99.90;;;;;;5032403;28;20029;-72
2023/11/05 04:35:22;;;;;;;31.33;28.92;;;11.90;99.90;;;;;;5031631;28;20033;-71
2023/11/05 04:37:48;;;;;;;30.30;27.83;;;11.90;99.90;;;;;;5032436;28;20406;-72
2023/11/05 04:40:15;;;;;;;30.25;26.60;;;11.90;99.90;;;;;;5030115;28;20045;-71
2023/11/05 04:42:41;;;;;;;33.60;30.80;;;11.90;99.90;;;;;;5031095;28;20034;-71
2023/11/05 04:45:07;;;;;;;35.17;32.25;;;11.90;99.90;;;;;;5031734;28;20037;-72
2023/11/05 04:47:33;;;;;;;40.67;37.22;;;11.90;99.90;;;;;;5031581;28;20034;-72
2023/11/05 04:49:59;;;;;;;36.70;33.58;;;11.90;99.90;;;;;;5030812;28;20036;-72
2023/11/05 04:52:26;;;;;;;30.80;27.85;;;11.90;99.90;;;;;;5031966;28;20029;-71
2023/11/05 04:54:52;;;;;;;34.25;31.38;;;11.80;99.90;;;;;;5031308;28;20494;-71
2023/11/05 04:57:18;;;;;;;28.05;25.73;;;11.80;99.90;;;;;;5028904;28;20049;-72
2023/11/05 04:59:44;;;;;;;53.58;49.63;;;11.80;99.90;;;;;;5015264;28;20459;-70
2023/11/05 05:02:11;;;;;;;38.63;35.42;;;11.80;99.90;;;;;;5009902;28;20487;-70
2023/11/05 05:04:37;;;;;;;30.95;28.25;;;11.80;99.90;;;;;;5012170;28;20034;-70
2023/11/05 05:07:03;;;;;;;33.88;31.10;;;11.70;99.90;;;;;;5013871;28;20359;-70
2023/11/05 05:09:29;;;;;;;36.92;33.95;;;11.70;99.90;;;;;;5031855;28;20029;-70
2023/11/05 05:11:57;;;;;;;34.72;31.67;;;11.70;99.90;;;;;;5030595;28;20089;-69
2023/11/05 05:14:25;;;;;;;33.25;30.73;;;11.70;99.90;;;;;;5027631;28;20038;-70
2023/11/05 05:16:53;;;;;;;35.75;33.15;;;11.70;99.90;;;;;;5026421;28;20054;-70
2023/11/05 05:19:19;;;;;;;46.53;43.22;;;11.70;99.90;;;;;;5031320;28;20414;-70
2023/11/05 05:21:45;;;;;;;32.55;30.17;;;11.70;99.90;;;;;;5035149;28;20044;-70
2023/11/05 05:24:12;;;;;;;47.38;43.55;;;11.70;99.90;;;;;;5034625;28;20022;-70
2023/11/05 05:26:38;;;;;;;42.72;39.72;;;11.70;99.90;;;;;;5034263;28;20037;-70
2023/11/05 05:29:04;;;;;;;45.58;42.58;;;11.60;99.90;;;;;;5034603;28;20493;-70
2023/11/05 05:31:31;;;;;;;33.28;30.77;;;11.70;99.90;;;;;;5034765;28;20044;-70
2023/11/05 05:33:58;;;;;;;43.83;40.45;;;11.70;99.90;;;;;;5032925;28;20498;-70
2023/11/05 05:36:24;;;;;;;54.80;51.30;;;11.60;99.90;;;;;;5035048;28;20033;-70
2023/11/05 05:38:51;;;;;;;37.42;34.88;;;11.60;99.90;;;;;;5035426;28;20029;-70
2023/11/05 05:41:17;;;;;;;40.13;37.80;;;11.60;99.90;;;;;;5034410;28;20030;-70
2023/11/05 05:43:43;;;;;;;45.13;42.08;;;11.60;99.90;;;;;;5034406;28;20378;-70
2023/11/05 05:46:14;;;;;;;37.72;35.25;;;11.50;99.90;;;;;;5033239;28;20505;-70
2023/11/05 05:48:40;;;;;;;30.38;28.25;;;11.60;99.90;;;;;;5034567;28;20462;-70
2023/11/05 05:51:10;;;;;;;36.63;33.95;;;11.60;99.90;;;;;;5034741;28;20038;-70
2023/11/05 05:53:37;;;;;;;46.33;42.95;;;11.60;99.90;;;;;;5033915;28;20041;-71
2023/11/05 05:56:04;;;;;;;29.42;27.02;;;11.50;99.90;;;;;;5033975;28;20041;-70
2023/11/05 05:58:30;;;;;;;35.58;33.13;;;11.50;99.90;;;;;;5034552;28;20372;-69
2023/11/05 06:00:57;;;;;;;26.58;24.23;;;11.50;99.90;;;;;;5032264;28;20034;-71
2023/11/05 06:03:23;;;;;;;26.08;24.23;;;11.50;99.90;;;;;;5016853;28;20049;-70
2023/11/05 06:05:49;;;;;;;27.33;24.90;;;11.50;99.90;;;;;;5032865;28;20032;-71
2023/11/05 06:08:15;;;;;;;29.98;28.02;;;11.50;99.90;;;;;;5035090;28;20030;-70
2023/11/05 06:10:41;;;;;;;35.63;33.42;;;11.50;99.90;;;;;;5016830;28;20363;-71
2023/11/05 06:13:08;;;;;;;44.78;40.95;;;11.50;99.90;;;;;;5034929;28;20036;-70
2023/11/05 06:15:34;;;;;;;35.78;33.15;;;11.50;99.90;;;;;;5034333;28;20044;-70
2023/11/05 06:18:00;;;;;;;33.67;31.10;;;11.50;99.90;;;;;;5032971;28;20410;-70
2023/11/05 06:20:26;;;;;;;44.92;42.17;;;11.50;99.90;;;;;;5034773;28;20109;-71
2023/11/05 06:22:53;;;;;;;34.20;31.85;;;11.50;99.90;;;;;;5034822;28;20053;-70
2023/11/05 06:25:19;;;;;;;56.22;52.65;;;11.50;99.90;;;;;;5033122;28;20049;-71
2023/11/05 06:27:45;;;;;;;41.90;38.97;;;11.50;99.90;;;;;;5034784;28;20030;-70
2023/11/05 06:30:12;;;;;;;29.48;27.00;;;11.50;99.90;;;;;;5032974;28;20045;-70
2023/11/05 06:32:41;;;;;;;39.13;36.42;;;11.40;99.90;;;;;;5032710;28;20026;-70
2023/11/05 06:35:07;;;;;;;44.30;41.08;;;11.40;99.90;;;;;;5032967;28;20478;-71
2023/11/05 06:37:34;;;;;;;40.20;36.63;;;11.40;99.90;;;;;;5033307;28;20052;-70
2023/11/05 06:40:00;;;;;;;30.85;28.80;;;11.50;99.90;;;;;;5034032;28;20030;-70
2023/11/05 06:42:26;;;;;;;36.03;33.28;;;11.40;99.90;;;;;;5034417;28;20037;-71
2023/11/05 06:44:53;;;;;;;44.08;41.08;;;11.40;99.90;;;;;;5033258;28;20030;-70
2023/11/05 06:47:19;;;;;;;45.85;42.13;;;11.40;99.90;;;;;;5032262;28;20037;-70
2023/11/05 06:49:45;;;;;;;35.85;32.97;;;11.40;99.90;;;;;;5034389;28;20036;-71
2023/11/05 06:52:11;;;;;;;44.20;40.70;;;11.40;99.90;;;;;;5034169;28;20545;-70
2023/11/05 06:54:39;;;;;;;47.03;43.40;;;11.40;99.90;;;;;;5034126;28;20029;-70
2023/11/05 06:57:05;;;;;;;41.95;39.15;;;11.40;99.90;;;;;;5034006;28;20045;-70
2023/11/05 06:59:31;;;;;;;45.25;42.10;;;11.40;99.90;;;;;;5033919;28;20044;-71
2023/11/05 07:01:58;;;;;;;31.92;29.33;;;11.40;99.90;;;;;;5032062;28;20033;-70
2023/11/05 07:04:24;;;;;;;33.75;30.92;;;11.40;99.90;;;;;;5032324;28;20025;-70
2023/11/05 07:06:50;;;;;;;39.40;36.33;;;11.40;99.90;;;;;;5033864;28;20436;-70
2023/11/05 07:09:16;;;;;;;40.40;37.25;;;11.40;99.90;;;;;;5034080;28;20041;-70
2023/11/05 07:11:42;;;;;;;40.83;38.30;;;11.40;99.90;;;;;;5032588;28;20026;-71
2023/11/05 07:14:09;;;;;;;40.15;37.20;;;11.40;99.90;;;;;;5033921;28;20029;-70
2023/11/05 07:16:35;;;;;;;35.55;32.53;;;11.40;99.90;;;;;;5032701;28;20052;-70
2023/11/05 07:19:02;;;;;;;45.13;41.75;;;11.40;99.90;;;;;;5033779;28;20160;-70
2023/11/05 07:21:28;;;;;;;49.88;46.13;;;11.40;99.90;;;;;;5032364;28;20501;-70
2023/11/05 07:23:54;;;;;;;34.58;31.88;;;11.50;99.90;;;;;;5033639;28;20036;-69
2023/11/05 07:26:20;;;;;;;30.08;27.67;;;11.50;99.90;;;;;;5040056;28;20379;-70
2023/11/05 07:28:46;;;;;;;33.70;30.98;;;11.50;99.90;;;;;;5033378;28;20032;-71
2023/11/05 07:31:16;;;;;;;26.67;24.40;;;11.50;99.90;;;;;;5032571;28;20029;-70
2023/11/05 07:33:43;;;;;;;37.50;34.63;;;11.50;99.90;;;;;;5029820;28;20041;-70
2023/11/05 07:36:09;;;;;;;35.47;32.33;;;11.50;99.90;;;;;;5016235;28;20391;-70
2023/11/05 07:38:35;;;;;;;36.40;33.42;;;11.50;99.90;;;;;;5030007;28;20045;-70
2023/11/05 07:41:02;;;;;;;30.67;28.50;;;11.50;99.90;;;;;;5028038;28;20032;-70
2023/11/05 07:43:28;;;;;;;37.55;34.45;;;11.50;99.90;;;;;;5032306;28;20034;-70
2023/11/05 07:45:54;;;;;;;33.25;30.27;;;11.50;99.90;;;;;;5031123;28;20037;-70
2023/11/05 07:48:21;;;;;;;38.42;35.50;;;11.50;99.90;;;;;;5033241;28;20033;-70
2023/11/05 07:50:50;;;;;;;41.28;38.08;;;11.60;99.90;;;;;;5025532;28;20026;-70
2023/11/05 07:53:16;;;;;;;57.65;53.17;;;11.50;99.90;;;;;;5021785;28;20017;-70
2023/11/05 07:55:43;;;;;;;52.63;48.95;;;11.60;99.90;;;;;;5025458;28;20044;-70
2023/11/05 07:58:09;;;;;;;48.35;44.63;;;11.60;99.90;;;;;;5023455;28;20433;-70
2023/11/05 08:00:35;;;;;;;63.60;59.25;;;11.60;99.90;;;;;;5020762;28;20033;-70
2023/11/05 08:03:02;;;;;;;62.55;58.42;;;11.60;99.90;;;;;;5019888;28;20460;-70
2023/11/05 08:05:28;;;;;;;52.92;48.85;;;11.70;99.90;;;;;;5015819;28;20038;-70
2023/11/05 08:07:55;;;;;;;51.38;47.53;;;11.70;99.90;;;;;;5027301;28;20475;-70
2023/11/05 08:10:21;;;;;;;47.33;43.40;;;11.70;99.90;;;;;;5029240;28;20041;-70
2023/11/05 08:12:47;;;;;;;56.80;52.83;;;11.80;99.90;;;;;;5030321;28;20034;-70
2023/11/05 08:15:13;;;;;;;38.17;34.95;;;11.80;99.90;;;;;;5022660;28;20037;-70
2023/11/05 08:17:40;;;;;;;43.85;40.20;;;11.90;99.90;;;;;;5032243;28;20423;-70
2023/11/05 08:20:06;;;;;;;42.85;39.38;;;11.90;99.90;;;;;;5024552;28;20026;-70
2023/11/05 08:22:34;;;;;;;48.53;44.55;;;12.00;99.90;;;;;;5028669;28;20057;-70
2023/11/05 08:25:00;;;;;;;47.17;43.58;;;12.00;99.90;;;;;;5021393;28;20382;-71
2023/11/05 08:27:26;;;;;;;40.53;37.17;;;12.10;99.90;;;;;;5031251;28;20037;-71
2023/11/05 08:29:52;;;;;;;39.17;35.92;;;12.10;99.90;;;;;;5022185;28;20398;-70
2023/11/05 08:32:21;;;;;;;46.30;42.88;;;12.10;99.90;;;;;;5029209;28;20041;-70
2023/11/05 08:34:47;;;;;;;56.13;52.38;;;12.20;99.90;;;;;;5030071;28;20513;-71
2023/11/05 08:37:13;;;;;;;42.00;38.53;;;12.20;99.90;;;;;;5029476;28;20041;-71
2023/11/05 08:39:39;;;;;;;48.30;44.53;;;12.20;99.90;;;;;;5030152;28;20038;-70
2023/11/05 08:42:07;;;;;;;76.43;71.22;;;12.30;99.90;;;;;;5024396;28;20030;-70
2023/11/05 08:44:33;;;;;;;61.55;57.03;;;12.30;99.90;;;;;;5039510;28;20032;-70
2023/11/05 08:46:59;;;;;;;78.85;74.07;;;12.40;99.90;;;;;;5026230;28;20041;-71
2023/11/05 08:49:25;;;;;;;79.72;74.78;;;12.40;99.90;;;;;;5031154;28;20466;-70
2023/11/05 08:51:52;;;;;;;68.70;64.13;;;12.50;99.90;;;;;;5027228;28;20033;-69
2023/11/05 08:54:20;;;;;;;53.15;49.22;;;12.50;99.90;;;;;;5027483;28;20049;-71
2023/11/05 08:56:46;;;;;;;45.22;41.78;;;12.60;99.90;;;;;;5027120;28;20037;-71
2023/11/05 08:59:12;;;;;;;43.25;40.13;;;12.60;99.90;;;;;;5030405;28;20045;-70
2023/11/05 09:01:38;;;;;;;41.88;38.72;;;12.70;99.90;;;;;;5028732;28;20036;-71
2023/11/05 09:04:04;;;;;;;59.28;55.10;;;12.70;99.90;;;;;;5022405;28;20394;-71
2023/11/05 09:06:30;;;;;;;45.28;41.58;;;12.80;99.90;;;;;;5021321;28;20037;-69
2023/11/05 09:08:57;;;;;;;45.33;42.20;;;12.80;99.90;;;;;;5031085;28;20068;-71
2023/11/05 09:11:23;;;;;;;59.60;55.38;;;12.80;99.90;;;;;;5031371;28;20034;-71
2023/11/05 09:13:49;;;;;;;49.97;46.38;;;12.90;99.90;;;;;;5030590;28;20032;-71
2023/11/05 09:16:17;;;;;;;61.63;57.65;;;12.90;99.90;;;;;;5015419;28;20042;-71
2023/11/05 09:18:43;;;;;;;65.40;61.05;;;13.00;99.90;;;;;;5010934;28;20605;-70
2023/11/05 09:21:09;;;;;;;65.28;60.72;;;13.00;99.90;;;;;;5019754;28;20374;-70
2023/11/05 09:23:35;;;;;;;73.78;69.28;;;13.10;99.90;;;;;;5030494;28;20041;-71
2023/11/05 09:26:01;;;;;;;69.28;64.95;;;13.20;99.90;;;;;;5026334;28;20049;-71
2023/11/05 09:28:29;;;;;;;76.40;71.25;;;13.20;99.90;;;;;;5031674;28;20025;-71
2023/11/05 09:30:56;;;;;;;66.03;61.83;;;13.30;99.90;;;;;;5029421;28;20029;-71
2023/11/05 09:33:22;;;;;;;68.85;64.53;;;13.30;99.90;;;;;;5051813;28;20505;-70
2023/11/05 09:35:48;;;;;;;76.35;71.57;;;13.40;99.90;;;;;;5028270;28;20022;-71
2023/11/05 09:38:14;;;;;;;71.22;66.20;;;13.40;99.90;;;;;;5029697;28;20061;-71
2023/11/05 09:40:40;;;;;;;70.10;65.10;;;13.50;99.90;;;;;;5020826;28;20026;-71
2023/11/05 09:43:09;;;;;;;69.82;65.47;;;13.50;99.90;;;;;;5020887;28;20056;-71
2023/11/05 09:45:36;;;;;;;86.05;80.45;;;13.50;99.90;;;;;;5027547;28;20044;-71
2023/11/05 09:48:06;;;;;;;66.72;62.47;;;13.60;99.90;;;;;;5018066;28;20033;-71
2023/11/05 09:50:36;;;;;;;73.60;69.32;;;13.70;99.90;;;;;;5023837;28;20060;-71
2023/11/05 09:53:07;;;;;;;60.97;57.03;;;13.70;99.90;;;;;;5029967;28;20033;-71
2023/11/05 09:55:33;;;;;;;93.13;87.60;;;13.70;99.90;;;;;;5030640;28;20048;-71
2023/11/05 09:58:01;;;;;;;84.78;79.75;;;13.80;99.90;;;;;;5020594;28;20498;-72
2023/11/05 10:00:32;;;;;;;71.35;67.10;;;13.80;99.90;;;;;;5024189;28;20029;-72
2023/11/05 10:03:08;;;;;;;70.90;66.13;;;13.80;99.90;;;;;;5041681;28;20505;-71
2023/11/05 10:05:35;;;;;;;69.25;64.90;;;13.80;99.90;;;;;;5014191;28;20037;-71
2023/11/05 10:08:05;;;;;;;74.00;69.78;;;13.90;99.90;;;;;;5030897;28;20033;-71
2023/11/05 10:10:31;;;;;;;75.57;71.35;;;13.90;99.90;;;;;;5031322;28;20038;-71
2023/11/05 10:12:58;;;;;;;77.53;73.10;;;13.90;99.90;;;;;;5034535;28;20458;-72
2023/11/05 10:15:24;;;;;;;76.72;71.82;;;13.90;99.90;;;;;;5032786;28;20038;-71
2023/11/05 10:17:53;;;;;;;79.57;75.00;;;14.00;99.90;;;;;;5033057;28;20060;-72
2023/11/05 10:20:20;;;;;;;78.53;73.97;;;14.00;99.90;;;;;;5028672;28;20037;-72
2023/11/05 10:22:59;;;;;;;110.75;104.47;;;14.10;99.90;;;;;;5034014;28;20036;-72
2023/11/05 10:25:25;;;;;;;95.85;90.65;;;14.10;99.90;;;;;;5017131;28;20073;-71
2023/11/05 10:27:53;;;;;;;92.93;87.90;;;14.10;99.90;;;;;;5021482;28;20036;-71
2023/11/05 10:30:20;;;;;;;101.93;96.43;;;14.10;99.90;;;;;;5024370;28;20049;-72
2023/11/05 10:32:48;;;;;;;85.70;80.63;;;14.10;99.90;;;;;;5014366;28;20049;-68
2023/11/05 10:35:21;;;;;;;97.40;92.10;;;14.20;99.90;;;;;;5015913;28;20391;-72
2023/11/05 10:37:47;;;;;;;128.45;121.30;;;14.20;99.90;;;;;;5020189;28;20038;-72
2023/11/05 10:40:16;;;;;;;88.63;84.00;;;14.20;99.90;;;;;;5026708;28;20049;-72
2023/11/05 10:42:44;;;;;;;97.70;92.57;;;14.30;99.90;;;;;;5031011;28;20026;-72
2023/11/05 10:45:12;;;;;;;111.40;105.35;;;14.30;99.90;;;;;;5027837;28;20057;-72
2023/11/05 10:47:38;;;;;;;100.22;94.32;;;14.30;99.90;;;;;;5030762;28;20026;-72
2023/11/05 10:50:19;;;;;;;137.27;129.85;;;14.30;99.90;;;;;;5024575;28;20041;-71
2023/11/05 10:52:46;;;;;;;108.70;102.90;;;14.40;99.90;;;;;;5028186;28;20037;-72
2023/11/05 10:55:12;;;;;;;101.00;95.80;;;14.50;99.90;;;;;;5041190;28;20397;-71
2023/11/05 10:57:48;;;;;;;136.27;129.15;;;14.50;99.90;;;;;;5019817;28;20459;-72
2023/11/05 11:00:15;;;;;;;123.90;117.10;;;14.60;99.90;;;;;;5018473;28;20397;-71
2023/11/05 11:02:44;;;;;;;132.88;126.18;;;14.60;99.90;;;;;;5032330;28;20037;-71
2023/11/05 11:05:14;;;;;;;135.90;128.48;;;14.60;99.90;;;;;;5032993;28;20489;-71
2023/11/05 11:07:40;;;;;;;150.63;142.50;;;14.70;99.90;;;;;;5016129;28;20040;-71
2023/11/05 11:10:07;;;;;;;138.20;130.90;;;14.70;99.90;;;;;;5031026;28;20033;-72
2023/11/05 11:12:34;;;;;;;127.10;120.57;;;14.70;99.90;;;;;;5031462;28;20049;-71
2023/11/05 11:15:05;;;;;;;154.40;146.27;;;14.70;99.90;;;;;;5016186;28;20505;-71
2023/11/05 11:17:33;;;;;;;120.88;114.63;;;14.70;99.90;;;;;;5029289;28;20057;-71
2023/11/05 11:20:11;;;;;;;168.85;159.88;;;14.70;99.90;;;;;;5014507;28;20056;-71
2023/11/05 11:22:44;;;;;;;120.70;113.93;;;14.70;99.90;;;;;;5031162;28;20430;-70
2023/11/05 11:25:12;;;;;;;102.30;96.65;;;14.70;99.90;;;;;;5030039;28;20041;-71
2023/11/05 11:27:41;;;;;;;136.00;128.63;;;14.80;99.90;;;;;;5017179;28;20403;-71
2023/11/05 11:30:11;;;;;;;118.30;111.55;;;14.80;99.90;;;;;;5029208;28;20034;-72
2023/11/05 11:32:38;;;;;;;157.73;148.65;;;14.80;99.90;;;;;;5012306;28;20034;-69
2023/11/05 11:35:07;;;;;;;150.93;142.93;;;14.90;99.90;;;;;;5029378;28;20534;-69
2023/11/05 11:37:34;;;;;;;131.50;124.47;;;15.00;99.90;;;;;;5032704;28;20036;-69
2023/11/05 11:40:01;;;;;;;164.50;155.77;;;15.00;99.90;;;;;;5032823;28;20394;-68
2023/11/05 11:42:27;;;;;;;148.95;140.77;;;15.10;99.90;;;;;;5026970;28;20490;-68
2023/11/05 11:44:53;;;;;;;128.43;121.65;;;15.00;99.90;;;;;;5016025;28;20493;-68
2023/11/05 11:47:25;;;;;;;137.27;129.80;;;15.00;99.90;;;;;;5017637;28;20033;-68
2023/11/05 11:49:51;;;;;;;125.78;119.20;;;15.10;99.90;;;;;;5013603;28;20041;-68
2023/11/05 11:52:17;;;;;;;136.85;129.65;;;15.10;99.90;;;;;;5044380;28;20037;-68
2023/11/05 11:54:45;;;;;;;163.80;155.18;;;15.10;99.90;;;;;;5030446;28;20034;-68
2023/11/05 11:57:12;;;;;;;131.15;124.18;;;15.10;99.90;;;;;;5032366;28;20044;-67
2023/11/05 11:59:39;;;;;;;130.10;122.82;;;15.10;99.90;;;;;;5029203;28;20041;-70
2023/11/05 12:02:05;;;;;;;104.43;98.75;;;15.20;99.90;;;;;;5031776;28;20037;-68
2023/11/05 12:04:31;;;;;;;119.75;112.90;;;15.20;99.90;;;;;;5017274;28;20046;-68
2023/11/05 12:07:04;;;;;;;121.70;114.72;;;15.30;99.90;;;;;;5020589;28;20033;-69
2023/11/05 12:09:31;;;;;;;122.40;115.70;;;15.40;99.90;;;;;;5028888;28;20022;-69
2023/11/05 12:11:58;;;;;;;113.55;107.40;;;15.40;99.90;;;;;;5031020;28;20048;-69
2023/11/05 12:14:25;;;;;;;110.00;103.90;;;15.20;99.90;;;;;;5014701;28;20038;-69
2023/11/05 12:16:51;;;;;;;106.38;100.15;;;15.10;99.90;;;;;;5020252;28;20062;-69
2023/11/05 12:19:17;;;;;;;123.78;116.78;;;15.00;99.90;;;;;;5025322;28;20049;-69
2023/11/05 12:21:43;;;;;;;103.38;97.60;;;14.90;99.90;;;;;;5030977;28;20430;-69